createdAt,value
2022-08-03T00:02:34.174Z,2.40
2022-08-03T00:05:37.855Z,2.58
2022-08-03T00:08:42.218Z,5.15
2022-08-03T00:11:45.100Z,3.28
2022-08-03T00:14:48.022Z,3.88
2022-08-03T00:17:52.782Z,2.83
2022-08-03T00:20:56.938Z,4.35
2022-08-03T00:24:01.481Z,3.42
2022-08-03T00:27:04.509Z,3.03
2022-08-03T00:30:08.943Z,2.00
2022-08-03T00:33:11.888Z,2.72
2022-08-03T00:36:16.853Z,3.65
2022-08-03T00:39:21.059Z,2.88
2022-08-03T00:42:24.032Z,3.58
2022-08-03T00:45:33.710Z,3.00
2022-08-03T00:48:36.654Z,2.55
2022-08-03T00:51:39.818Z,3.45
2022-08-03T00:54:44.282Z,4.15
2022-08-03T00:57:48.021Z,3.45
2022-08-03T01:00:51.162Z,5.30
2022-08-03T01:03:54.209Z,5.20
2022-08-03T01:07:04.912Z,2.75
2022-08-03T01:10:24.919Z,2.25
2022-08-03T01:14:01.661Z,3.30
2022-08-03T01:17:03.171Z,2.13
2022-08-03T01:20:10.642Z,5.80
2022-08-03T01:23:42.521Z,2.92
2022-08-03T01:27:05.035Z,3.10
2022-08-03T01:30:11.983Z,3.05
2022-08-03T01:33:20.101Z,2.35
2022-08-03T01:36:25.759Z,2.97
2022-08-03T01:39:32.890Z,4.68
2022-08-03T01:42:37.710Z,2.33
2022-08-03T01:45:42.522Z,6.57
2022-08-03T01:48:47.239Z,2.55
2022-08-03T01:51:58.694Z,4.13
2022-08-03T01:55:08.793Z,3.72
2022-08-03T01:58:14.765Z,5.32
2022-08-03T02:01:22.696Z,3.63
2022-08-03T02:04:26.874Z,2.72
2022-08-03T02:07:31.518Z,2.72
2022-08-03T02:10:36.470Z,4.55
2022-08-03T02:13:40.594Z,4.45
2022-08-03T02:16:46.584Z,4.95
2022-08-03T02:19:51.722Z,2.25
2022-08-03T02:22:54.765Z,3.08
2022-08-03T02:26:01.943Z,2.80
2022-08-03T02:29:12.389Z,4.40
2022-08-03T02:32:21.455Z,11.75
2022-08-03T02:35:27.420Z,2.70
2022-08-03T02:38:40.400Z,3.40
2022-08-03T02:41:47.239Z,4.97
2022-08-03T02:44:53.608Z,5.15
2022-08-03T02:48:01.862Z,3.38
2022-08-03T02:51:06.378Z,3.08
2022-08-03T02:54:10.647Z,4.60
2022-08-03T02:57:15.411Z,3.40
2022-08-03T03:00:19.638Z,3.63
2022-08-03T03:03:37.234Z,2.83
2022-08-03T03:06:47.931Z,5.38
2022-08-03T03:09:52.147Z,3.33
2022-08-03T03:12:57.887Z,3.65
2022-08-03T03:16:04.095Z,3.17
2022-08-03T03:19:09.394Z,2.00
2022-08-03T03:22:13.830Z,2.17
2022-08-03T03:25:17.381Z,4.57
2022-08-03T03:28:20.826Z,4.07
2022-08-03T03:31:24.261Z,4.22
2022-08-03T03:34:30.144Z,5.93
2022-08-03T03:37:33.651Z,3.85
2022-08-03T03:40:36.674Z,2.85
2022-08-03T03:43:39.757Z,3.28
2022-08-03T03:46:43.095Z,2.78
2022-08-03T03:49:48.129Z,1.90
2022-08-03T03:52:51.251Z,3.08
2022-08-03T03:55:59.274Z,5.93
2022-08-03T03:59:05.718Z,4.43
2022-08-03T04:02:09.719Z,3.40
2022-08-03T04:05:32.549Z,2.30
2022-08-03T04:08:49.531Z,3.88
2022-08-03T04:11:54.189Z,2.35
2022-08-03T04:14:59.660Z,3.45
2022-08-03T04:18:04.706Z,3.78
2022-08-03T04:21:12.256Z,2.17
2022-08-03T04:24:16.593Z,3.65
2022-08-03T04:27:25.788Z,1.92
2022-08-03T04:30:29.953Z,2.15
2022-08-03T04:33:35.619Z,3.17
2022-08-03T04:36:48.855Z,2.92
2022-08-03T04:39:56.967Z,2.42
2022-08-03T04:43:01.700Z,4.97
2022-08-03T04:46:05.954Z,5.47
2022-08-03T04:49:09.237Z,3.25
2022-08-03T04:52:16.023Z,3.30
2022-08-03T04:55:27.308Z,2.95
2022-08-03T04:58:30.228Z,3.10
2022-08-03T05:01:33.118Z,3.83
2022-08-03T05:04:38.062Z,2.58
2022-08-03T05:07:42.408Z,2.35
2022-08-03T05:10:45.404Z,3.00
2022-08-03T05:13:48.677Z,4.15
2022-08-03T05:16:51.525Z,5.70
2022-08-03T05:19:54.560Z,2.50
2022-08-03T05:22:59.772Z,5.35
2022-08-03T05:26:02.773Z,5.50
2022-08-03T05:29:05.952Z,4.22
2022-08-03T05:32:09.007Z,2.40
2022-08-03T05:35:56.195Z,7.32
2022-08-03T05:38:36.359Z,5.90
2022-08-03T05:41:39.211Z,2.10
2022-08-03T05:44:42.158Z,4.03
2022-08-03T05:47:45.211Z,3.30
2022-08-03T05:50:48.153Z,7.60
2022-08-03T05:53:52.476Z,5.10
2022-08-03T05:56:55.503Z,3.35
2022-08-03T05:59:59.006Z,2.53
2022-08-03T06:03:02.395Z,2.20
2022-08-03T06:06:05.831Z,5.22
2022-08-03T06:09:10.801Z,4.55
2022-08-03T06:12:14.266Z,8.35
2022-08-03T06:15:18.683Z,4.28
2022-08-03T06:18:21.629Z,2.65
2022-08-03T06:21:24.553Z,4.28
2022-08-03T06:24:32.829Z,4.50
2022-08-03T06:27:37.647Z,4.68
2022-08-03T06:30:41.577Z,4.03
2022-08-03T06:34:22.848Z,3.63
2022-08-03T06:37:07.497Z,3.95
2022-08-03T06:40:13.983Z,3.70
2022-08-03T06:43:17.009Z,5.82
2022-08-03T06:46:20.556Z,4.93
2022-08-03T06:49:23.595Z,4.93
2022-08-03T06:52:37.828Z,5.53
2022-08-03T06:55:42.838Z,9.60
2022-08-03T06:58:46.954Z,8.75
2022-08-03T07:01:50.082Z,8.50
2022-08-03T07:04:53.001Z,5.25
2022-08-03T07:07:57.744Z,5.90
2022-08-03T07:11:02.501Z,6.20
2022-08-03T07:14:05.903Z,5.57
2022-08-03T07:17:11.987Z,5.25
2022-08-03T07:20:15.308Z,5.68
2022-08-03T07:23:19.260Z,6.03
2022-08-03T07:26:23.810Z,4.18
2022-08-03T07:29:26.727Z,5.47
2022-08-03T07:32:31.463Z,7.38
2022-08-03T07:35:34.777Z,9.98
2022-08-03T07:38:37.845Z,6.00
2022-08-03T07:41:42.331Z,5.75
2022-08-03T07:44:45.319Z,3.97
2022-08-03T07:47:53.478Z,4.70
2022-08-03T07:50:56.948Z,3.55
2022-08-03T07:54:00.925Z,9.23
2022-08-03T07:57:05.406Z,11.23
2022-08-03T08:00:13.748Z,16.17
2022-08-03T08:03:16.617Z,12.05
2022-08-03T08:06:19.648Z,9.48
2022-08-03T08:09:23.501Z,6.90
2022-08-03T08:12:27.724Z,7.30
2022-08-03T08:15:31.631Z,6.47
2022-08-03T08:18:34.516Z,5.10
2022-08-03T08:21:54.009Z,11.90
2022-08-03T08:25:01.290Z,9.18
2022-08-03T08:28:29.416Z,7.00
2022-08-03T08:31:29.031Z,5.82
2022-08-03T08:34:32.414Z,7.65
2022-08-03T08:37:35.992Z,9.80
2022-08-03T08:40:38.841Z,6.22
2022-08-03T08:43:43.365Z,7.07
2022-08-03T08:46:47.008Z,6.97
2022-08-03T08:50:09.199Z,4.00
2022-08-03T08:53:17.406Z,6.18
2022-08-03T08:56:25.469Z,5.65
2022-08-03T08:59:48.337Z,5.57
2022-08-03T09:02:52.601Z,7.13
2022-08-03T09:05:56.505Z,4.85
2022-08-03T09:08:59.781Z,2.72
2022-08-03T09:12:21.118Z,3.65
2022-08-03T09:15:29.132Z,10.82
2022-08-03T09:18:33.175Z,8.70
2022-08-03T09:21:36.747Z,5.78
2022-08-03T09:25:21.578Z,7.03
2022-08-03T09:28:32.439Z,2.75
2022-08-03T09:31:46.000Z,10.40
2022-08-03T09:34:50.063Z,6.43
2022-08-03T09:38:13.581Z,2.90
2022-08-03T09:41:20.258Z,4.47
2022-08-03T09:44:35.681Z,3.40
2022-08-03T09:47:44.728Z,5.22
2022-08-03T09:50:58.740Z,2.63
2022-08-03T09:54:20.288Z,4.75
2022-08-03T09:57:24.764Z,3.08
2022-08-03T10:00:27.609Z,4.82
2022-08-03T10:03:34.988Z,4.55
2022-08-03T10:06:37.835Z,3.47
2022-08-03T10:09:55.383Z,2.72
2022-08-03T10:12:58.358Z,4.70
2022-08-03T10:16:22.241Z,2.03
2022-08-03T10:19:26.650Z,3.17
2022-08-03T10:22:33.943Z,5.03
2022-08-03T10:25:40.643Z,3.28
2022-08-03T10:28:50.301Z,5.05
2022-08-03T10:31:57.716Z,3.60
2022-08-03T10:35:19.896Z,4.65
2022-08-03T10:38:30.234Z,6.57
2022-08-03T10:41:36.209Z,3.35
2022-08-03T10:44:42.376Z,2.38
2022-08-03T10:47:46.277Z,4.38
2022-08-03T10:50:51.969Z,3.30
2022-08-03T10:53:55.827Z,3.13
2022-08-03T10:57:16.127Z,2.25
2022-08-03T11:00:22.332Z,3.55
2022-08-03T11:03:25.297Z,2.70
2022-08-03T11:06:37.408Z,2.58
2022-08-03T11:09:42.949Z,3.33
2022-08-03T11:12:46.867Z,3.67
2022-08-03T11:15:52.137Z,3.05
2022-08-03T11:18:59.611Z,3.35
2022-08-03T11:22:03.894Z,2.75
2022-08-03T11:25:07.899Z,3.08
2022-08-03T11:28:30.641Z,2.00
2022-08-03T11:31:57.882Z,2.83
2022-08-03T11:35:09.515Z,2.17
2022-08-03T11:38:13.843Z,4.45
2022-08-03T11:41:44.810Z,2.78
2022-08-03T11:44:49.010Z,2.40
2022-08-03T11:47:56.206Z,1.98
2022-08-03T11:50:59.374Z,3.08
2022-08-03T11:54:05.316Z,2.97
2022-08-03T11:57:08.389Z,2.38
2022-08-03T12:00:26.213Z,2.30
2022-08-03T12:03:34.144Z,2.38
2022-08-03T12:06:54.917Z,2.40
2022-08-03T12:10:10.705Z,3.35
2022-08-03T12:14:44.635Z,5.47
2022-08-03T12:16:36.835Z,2.50
2022-08-03T12:19:45.880Z,1.70
2022-08-03T12:22:48.767Z,2.33
2022-08-03T12:25:53.093Z,1.85
2022-08-03T12:28:58.392Z,1.55
2022-08-03T12:32:01.570Z,2.17
2022-08-03T12:35:05.974Z,2.10
2022-08-03T12:38:08.992Z,2.30
2022-08-03T12:41:16.015Z,4.47
2022-08-03T12:44:18.980Z,2.25
2022-08-03T12:47:21.891Z,3.63
2022-08-03T12:50:26.695Z,1.42
2022-08-03T12:53:31.058Z,2.15
2022-08-03T12:56:35.613Z,2.42
2022-08-03T12:59:42.511Z,2.60
2022-08-03T13:03:38.381Z,1.75
2022-08-03T13:06:26.452Z,2.65
2022-08-03T13:09:29.753Z,3.97
2022-08-03T13:12:36.146Z,1.60
2022-08-03T13:15:47.673Z,2.15
2022-08-03T13:18:53.271Z,1.95
2022-08-03T13:22:04.001Z,1.95
2022-08-03T13:25:08.501Z,2.20
2022-08-03T13:28:14.427Z,3.13
2022-08-03T13:31:17.644Z,1.95
2022-08-03T13:34:23.474Z,1.75
2022-08-03T13:37:27.866Z,1.70
2022-08-03T13:40:36.750Z,1.40
2022-08-03T13:43:46.216Z,1.58
2022-08-03T13:46:49.673Z,1.70
2022-08-03T13:49:59.373Z,1.50
2022-08-03T13:53:04.989Z,2.20
2022-08-03T13:56:07.883Z,1.77
2022-08-03T13:59:12.085Z,1.98
2022-08-03T14:02:15.066Z,1.95
2022-08-03T14:05:18.129Z,1.88
2022-08-03T14:08:21.003Z,1.38
2022-08-03T14:11:23.898Z,1.50
2022-08-03T14:14:48.151Z,2.35
2022-08-03T14:17:51.045Z,1.92
2022-08-03T14:20:56.359Z,1.77
2022-08-03T14:24:00.357Z,2.17
2022-08-03T14:27:09.006Z,1.83
2022-08-03T14:30:14.957Z,1.52
2022-08-03T14:33:17.941Z,1.67
2022-08-03T14:36:20.820Z,1.55
2022-08-03T14:39:23.760Z,2.17
2022-08-03T14:42:26.727Z,2.00
2022-08-03T14:45:31.026Z,1.77
2022-08-03T14:50:30.828Z,3.17
2022-08-03T14:51:57.155Z,1.38
2022-08-03T14:55:01.095Z,1.70
2022-08-03T14:58:05.766Z,2.05
2022-08-03T15:02:04.701Z,1.58
2022-08-03T15:04:47.314Z,1.42
2022-08-03T15:07:50.243Z,1.95
2022-08-03T15:10:53.576Z,2.17
2022-08-03T15:13:56.490Z,2.00
2022-08-03T15:17:00.993Z,1.42
2022-08-03T15:20:22.486Z,1.85
2022-08-03T15:23:27.316Z,2.05
2022-08-03T15:26:35.385Z,1.50
2022-08-03T15:30:09.131Z,2.55
2022-08-03T15:33:07.281Z,1.73
2022-08-03T15:36:10.260Z,1.50
2022-08-03T15:39:13.201Z,1.50
2022-08-03T15:42:16.140Z,1.50
2022-08-03T15:45:20.509Z,1.42
2022-08-03T15:48:26.463Z,1.50
2022-08-03T15:51:29.781Z,1.63
2022-08-03T15:54:32.729Z,1.70
2022-08-03T15:59:10.003Z,1.50
2022-08-03T16:01:00.218Z,1.73
2022-08-03T16:04:04.640Z,1.40
2022-08-03T16:07:07.589Z,1.60
2022-08-03T16:10:16.890Z,1.98
2022-08-03T16:13:19.774Z,1.50
2022-08-03T16:16:22.626Z,2.15
2022-08-03T16:19:27.771Z,1.65
2022-08-03T16:22:30.791Z,1.42
2022-08-03T16:25:35.992Z,1.80
2022-08-03T16:28:39.154Z,1.35
2022-08-03T16:31:51.077Z,1.42
2022-08-03T16:34:56.205Z,1.58
2022-08-03T16:37:59.667Z,1.50
2022-08-03T16:41:02.578Z,1.88
2022-08-03T16:44:09.854Z,1.40
2022-08-03T16:47:22.355Z,1.65
2022-08-03T16:50:27.081Z,1.98
2022-08-03T16:53:42.137Z,2.22
2022-08-03T16:56:53.230Z,1.52
2022-08-03T16:59:56.512Z,1.85
2022-08-03T17:03:04.272Z,1.73
2022-08-03T17:06:09.462Z,2.53
2022-08-03T17:09:14.154Z,5.57
2022-08-03T17:12:17.899Z,3.53
2022-08-03T17:15:21.283Z,2.03
2022-08-03T17:18:47.925Z,1.52
2022-08-03T17:22:01.139Z,3.95
2022-08-03T17:25:07.489Z,2.70
2022-08-03T17:28:48.124Z,3.15
2022-08-03T17:31:48.915Z,3.03
2022-08-03T17:34:53.009Z,5.68
2022-08-03T17:38:03.435Z,3.33
2022-08-03T17:41:10.547Z,2.80
2022-08-03T17:44:31.178Z,2.47
2022-08-03T17:47:41.865Z,3.78
2022-08-03T17:51:04.257Z,2.60
2022-08-03T17:54:18.534Z,3.78
2022-08-03T17:57:30.286Z,3.17
2022-08-03T18:02:03.318Z,2.88
2022-08-03T18:04:42.733Z,2.25
2022-08-03T18:07:50.807Z,1.67
2022-08-03T18:11:14.352Z,2.80
2022-08-03T18:14:26.704Z,3.28
2022-08-03T18:17:55.858Z,3.83
2022-08-03T18:20:55.175Z,2.30
2022-08-03T18:23:59.552Z,2.78
2022-08-03T18:27:06.607Z,4.28
2022-08-03T18:30:12.013Z,2.55
2022-08-03T18:34:20.331Z,4.25
2022-08-03T18:36:39.833Z,2.10
2022-08-03T18:39:49.872Z,1.55
2022-08-03T18:42:55.207Z,2.25
2022-08-03T18:46:04.554Z,1.75
2022-08-03T18:49:14.129Z,1.40
2022-08-03T18:52:27.856Z,1.50
2022-08-03T18:59:02.308Z,3.92
2022-08-03T19:02:09.297Z,2.55
2022-08-03T19:05:40.102Z,1.42
2022-08-03T19:08:54.258Z,2.70
2022-08-03T19:12:14.044Z,4.60
2022-08-03T19:15:36.803Z,2.50
2022-08-03T19:18:49.565Z,1.80
2022-08-03T19:21:53.860Z,1.50
2022-08-03T19:24:57.843Z,8.27
2022-08-03T19:28:02.995Z,5.13
2022-08-03T19:31:10.265Z,8.43
2022-08-03T19:34:16.935Z,15.63
2022-08-03T19:37:22.095Z,9.20
2022-08-03T19:40:25.998Z,5.55
2022-08-03T19:43:53.210Z,9.50
2022-08-03T19:47:02.746Z,7.13
2022-08-03T19:50:14.060Z,5.57
2022-08-03T19:53:18.343Z,13.57
2022-08-03T19:56:26.499Z,4.60
2022-08-03T19:59:34.609Z,6.65
2022-08-03T20:02:43.024Z,7.25
2022-08-03T20:05:52.226Z,8.18
2022-08-03T20:08:58.679Z,8.68
2022-08-03T20:12:01.851Z,6.07
2022-08-03T20:15:07.056Z,6.47
2022-08-03T20:18:16.980Z,5.82
2022-08-03T20:21:23.489Z,8.60
2022-08-03T20:24:28.382Z,8.52
2022-08-03T20:28:07.289Z,11.77
2022-08-03T20:31:02.126Z,7.95
2022-08-03T20:34:07.509Z,8.63
2022-08-03T20:37:12.728Z,3.85
2022-08-03T20:40:15.990Z,4.28
2022-08-03T20:43:20.072Z,5.95
2022-08-03T20:46:31.377Z,6.70
2022-08-03T20:49:48.012Z,5.80
2022-08-03T20:52:51.202Z,4.57
2022-08-03T20:56:02.317Z,4.72
2022-08-03T20:59:17.963Z,5.35
2022-08-03T21:05:51.857Z,5.43
2022-08-03T21:09:06.786Z,6.75
2022-08-03T21:12:17.866Z,3.00
2022-08-03T21:13:11.192Z,1.33
2022-08-03T21:16:06.860Z,4.78
2022-08-03T21:18:51.834Z,4.28
2022-08-03T21:21:56.814Z,4.38
2022-08-03T21:25:05.082Z,4.88
2022-08-03T21:28:08.710Z,5.75
2022-08-03T21:31:12.150Z,6.85
2022-08-03T21:34:16.596Z,5.18
2022-08-03T21:37:21.281Z,8.55
2022-08-03T21:40:24.428Z,8.45
2022-08-03T21:43:27.426Z,10.13
2022-08-03T21:46:34.955Z,6.03
2022-08-03T21:50:02.613Z,7.68
2022-08-03T21:53:04.443Z,5.03
2022-08-03T21:56:10.133Z,6.95
2022-08-03T21:59:18.604Z,5.68
2022-08-03T22:02:24.367Z,5.50
2022-08-03T22:05:43.423Z,7.65
2022-08-03T22:08:49.660Z,5.88
2022-08-03T22:11:54.179Z,5.15
2022-08-03T22:15:00.554Z,8.27
2022-08-03T22:18:06.024Z,6.28
2022-08-03T22:21:12.378Z,5.57
2022-08-03T22:24:19.018Z,4.40
2022-08-03T22:27:31.406Z,3.92
2022-08-03T22:30:34.956Z,8.07
2022-08-03T22:33:39.319Z,5.90
2022-08-03T22:36:44.194Z,4.68
2022-08-03T22:39:48.858Z,4.15
2022-08-03T22:42:53.329Z,5.50
2022-08-03T22:46:10.514Z,7.20
2022-08-03T22:49:17.515Z,6.50
2022-08-03T22:52:21.350Z,4.35
2022-08-03T22:55:26.209Z,4.80
2022-08-03T22:58:29.202Z,4.68
2022-08-03T23:01:38.351Z,5.50
2022-08-03T23:04:44.732Z,3.08
2022-08-03T23:07:51.199Z,4.32
2022-08-03T23:10:58.058Z,3.63
2022-08-03T23:14:04.330Z,5.07
2022-08-03T23:17:08.406Z,5.93
2022-08-03T23:20:11.800Z,4.40
2022-08-03T23:23:16.110Z,8.85
2022-08-03T23:26:24.725Z,4.18
2022-08-03T23:29:30.317Z,3.85
2022-08-03T23:32:34.715Z,4.93
2022-08-03T23:36:28.257Z,4.38
2022-08-03T23:39:19.207Z,3.65
2022-08-03T23:42:24.850Z,4.75
2022-08-03T23:45:28.638Z,8.00
2022-08-03T23:48:31.753Z,3.38
2022-08-03T23:51:43.402Z,4.88
2022-08-03T23:54:54.282Z,4.55
2022-08-03T23:58:10.949Z,4.45
